• Join FlightAware (Why Join?)
  • Login
  • US Flag 
01:18AM EDT


 

Airport Tracker/Info


-or-


 

Live Flight TrackerFlight Track Log ✈ UAL4236 ✈ 09-Apr-2013 ✈ KIAH - KELP

Flight Track Log - Related Links

Times and Time Zones

All times are in EDT time to prevent confusion due to time zone crossing. See the UAL4236 flight status page for this flight to view local times or setup timezone preferences in your user account.

Time Position Orientation Groundspeed Altitude Reporting Facility
EDT Latitude Longitude Course Direction KTS MPH feet Rate Location/Type
10:17AM 29.9469 -95.3431 177° South 161 185 1,200  Level Houston Center
10:18AM 29.9106 -95.4053 236° Southwest 247 284 3,100 1,560 Climbing Houston Center
10:19AM 29.9039 -95.4269 250° West 237 273 3,800 2,520 Climbing Houston Center
10:19AM 29.8850 -95.4686 242° Southwest 234 269 5,500 2,400 Climbing Houston Center
10:20AM 29.8725 -95.5083 250° West 235 270 6,300 1,680 Climbing Houston Center
10:20AM 29.8906 -95.5544 294° West 281 323 7,400 1,620 Climbing Houston Center
10:21AM 29.9028 -95.5892 292° West 272 313 8,000 1,500 Climbing Houston Center
10:21AM 29.9214 -95.6400 293° West 283 326 9,000 1,620 Climbing Houston Center
10:22AM 30.0402 -95.8817 276° West  Level FlightAware Approximate
10:22AM 29.9336 -95.6742 292° West 285 328 9,700  Level Houston Center
10:22AM 29.9519 -95.7256 292° West 292 336 10,500 960 Climbing Houston Center
10:23AM 29.9642 -95.7617 291° West 293 337 10,700 480 Climbing Houston Center
10:24AM 29.9994 -95.8611 292° West 332 382 11,300 840 Climbing Houston Center
10:25AM 30.0439 -95.9883 292° West 356 410 12,500 1,020 Climbing Houston Center
10:26AM 30.0744 -96.0822 291° West 360 414 13,500 1,200 Climbing Houston Center
10:27AM 30.0953 -96.2186 280° West 361 415 15,000 1,200 Climbing Houston Center
10:28AM 30.1131 -96.3317 280° West 362 417 16,000 1,020 Climbing Houston Center
10:29AM 30.1319 -96.4586 280° West 365 420 17,200 1,080 Climbing Houston Center
10:30AM 30.1500 -96.5769 280° West 369 425 18,300 1,020 Climbing Houston Center
10:31AM 30.1683 -96.6983 280° West 375 432 19,400 1,140 Climbing Houston Center
10:32AM 30.1869 -96.8175 280° West 374 430 20,700 1,200 Climbing Houston Center
10:33AM 30.2039 -96.9389 279° West 375 432 21,900 1,020 Climbing Houston Center
10:34AM 30.2219 -97.0586 280° West 375 432 22,900 900 Climbing Houston Center
10:35AM 30.2394 -97.1803 279° West 379 436 23,800 840 Climbing Houston Center
10:36AM 30.2572 -97.3033 280° West 382 440 24,700 1,020 Climbing Houston Center
10:37AM 30.2789 -97.4472 280° West 383 441 26,000 1,080 Climbing Houston Center
10:38AM 30.2956 -97.5689 279° West 380 437 27,000 960 Climbing Houston Center
10:39AM 30.3128 -97.6892 279° West 374 430 28,000 960 Climbing Houston Center
10:40AM 30.3308 -97.8081 280° West 372 428 29,100 960 Climbing Houston Center
10:42AM 30.3469 -97.9258 279° West 367 422 30,100 960 Climbing Houston Center
10:43AM 30.3625 -98.0422 279° West 365 420 31,200 960 Climbing Houston Center
10:44AM 30.3792 -98.1586 279° West 363 418 32,200 1,020 Climbing Houston Center
10:45AM 30.3969 -98.2936 279° West 360 414 33,400 1,020 Climbing Houston Center
10:46AM 30.4125 -98.4061 279° West 351 404 34,400 960 Climbing Houston Center
10:47AM 30.4275 -98.5167 279° West 345 397 35,500 720 Climbing Houston Center
10:48AM 30.4417 -98.6250 279° West 338 389 36,000 240 Climbing Houston Center
10:49AM 30.4589 -98.7489 279° West 349 402 36,000  Level Houston Center
10:50AM 30.4756 -98.8586 280° West 363 418 36,000  Level Houston Center
10:51AM 30.4892 -98.9781 278° West 376 433 36,000  Level Houston Center
10:52AM 30.5069 -99.1044 279° West 390 449 36,000  Level Houston Center
10:53AM 30.5272 -99.2561 279° West 400 460 36,000  Level Houston Center
10:54AM 30.5444 -99.3825 279° West 399 459 36,000  Level Houston Center
10:55AM 30.5600 -99.5053 278° West 388 447 36,000  Level Houston Center
10:56AM 30.5747 -99.6242 278° West 378 435 36,000  Level Houston Center
10:57AM 30.5900 -99.7483 278° West 388 447 36,000  Level Houston Center
10:58AM 30.6144 -99.8975 281° West 401 461 36,000  Level Houston Center
10:59AM 30.6414 -100.0244 284° West 405 466 36,000 -60 Level Houston Center
11:00AM 30.6650 -100.1456 283° West 390 449 35,900  Descending Houston Center
11:01AM 30.6911 -100.2703 284° West 399 459 36,000  Climbing Houston Center
11:02AM 30.7156 -100.3953 283° West 402 463 36,000  Level Houston Center
11:03AM 30.7428 -100.5369 283° West 389 448 36,000  Level Houston Center
11:04AM 30.7667 -100.6594 283° West 387 445 36,000  Level Houston Center
11:05AM 30.7908 -100.7822 283° West 391 450 36,000  Level Houston Center
11:06AM 30.8156 -100.9047 283° West 390 449 36,000 -60 Level Houston Center
11:07AM 30.8406 -101.0286 283° West 398 458 35,900  Descending Houston Center
11:08AM 30.8625 -101.1469 282° West 383 441 36,000  Climbing Houston Center
11:09AM 30.8908 -101.2900 283° West 382 440 36,000  Level Houston Center
11:10AM 30.9069 -101.3844 281° West 384 442 36,000  Level Albuquerque Center
11:11AM 30.9303 -101.5075 282° West 387 445 36,000  Level Albuquerque Center
11:12AM 30.9533 -101.6286 283° West 386 444 36,000  Level Albuquerque Center
11:13AM 30.9764 -101.7483 283° West 383 441 36,000  Level Albuquerque Center
11:14AM 30.9992 -101.8711 282° West 383 441 36,000  Level Albuquerque Center
11:15AM 31.0269 -102.0203 282° West 393 452 36,000  Level Albuquerque Center
11:16AM 31.0469 -102.1322 282° West 365 420 36,000  Level Albuquerque Center
11:18AM 31.0686 -102.2436 283° West 354 407 36,000  Level Albuquerque Center
11:19AM 31.0900 -102.3594 282° West 362 417 36,000  Level Albuquerque Center
11:20AM 31.1106 -102.4758 282° West 366 421 36,000  Level Albuquerque Center
11:21AM 31.1322 -102.5981 282° West 364 419 36,000  Level Albuquerque Center
11:22AM 31.1536 -102.7161 282° West 368 423 36,000  Level Albuquerque Center
11:23AM 31.1756 -102.8392 282° West 381 438 36,000  Level Albuquerque Center
11:24AM 31.2022 -102.9864 282° West 385 443 36,000  Level Albuquerque Center
11:25AM 31.2242 -103.1067 282° West 383 441 36,000  Level Albuquerque Center
11:26AM 31.2422 -103.2161 281° West 355 409 36,000 -480 Level Albuquerque Center
11:27AM 31.2611 -103.3286 281° West 351 404 35,100 -1,380 Descending Albuquerque Center
11:28AM 31.2825 -103.4442 282° West 359 413 33,200 -2,340 Descending Albuquerque Center
11:29AM 31.3025 -103.5642 281° West 371 427 30,300 -2,520 Descending Albuquerque Center
11:30AM 31.3278 -103.7161 281° West 391 450 28,000 -1,140 Descending Albuquerque Center
11:31AM 31.3508 -103.8458 282° West 396 456 28,000  Level Albuquerque Center
11:32AM 31.3719 -103.9689 281° West 389 448 28,000  Level Albuquerque Center
11:33AM 31.3931 -104.0911 281° West 386 444 28,000  Level Albuquerque Center
11:34AM 31.4128 -104.2106 281° West 379 436 28,000  Level Albuquerque Center
11:35AM 31.4331 -104.3331 281° West 382 440 28,000 -60 Level Albuquerque Center
11:36AM 31.4539 -104.4572 281° West 388 447 27,900  Descending Albuquerque Center
11:37AM 31.4686 -104.6056 277° West 386 444 28,000  Climbing Albuquerque Center
11:38AM 31.4831 -104.7264 278° West 383 441 28,000 -540 Level Albuquerque Center
11:39AM 31.4942 -104.8414 276° West 374 430 27,000 -1,260 Descending Albuquerque Center
11:40AM 31.5064 -104.9564 277° West 366 421 25,500 -1,440 Descending Albuquerque Center
11:41AM 31.5169 -105.0694 276° West 360 414 24,100 -1,560 Descending Albuquerque Center
11:42AM 31.5306 -105.2047 277° West 354 407 22,300 -1,560 Descending Albuquerque Center
11:43AM 31.5425 -105.3172 277° West 352 405 20,900 -1,620 Descending Albuquerque Center
11:44AM 31.5503 -105.4350 274° West 358 412 19,200 -1,740 Descending Albuquerque Center
11:45AM 31.5556 -105.4861 277° West 354 407 18,400 -1,800 Descending Albuquerque Center
11:45AM 31.5636 -105.5461 279° West 349 402 17,200 -2,040 Descending Albuquerque Center
11:46AM 31.5664 -105.6006 273° West 347 399 16,400 -1,800 Descending Albuquerque Center
11:46AM 31.5753 -105.6553 281° West 340 391 15,400 -1,920 Descending Albuquerque Center
11:47AM 31.5789 -105.7122 274° West 324 373 14,500 -1,680 Descending Albuquerque Center
11:47AM 31.5844 -105.7594 278° West 325 374 13,700 -1,800 Descending Albuquerque Center
11:48AM 31.5961 -105.8153 284° West 319 367 12,700 -1,680 Descending Albuquerque Center
11:49AM 31.6258 -105.8744 301° West 325 374 12,000 -840 Descending Albuquerque Center
11:49AM 31.6408 -105.9064 299° West 323 372 11,900 -1,380 Descending Albuquerque Center
11:50AM 31.6817 -105.9494 318° Northwest 321 369 10,600 -1,800 Descending Albuquerque Center
11:50AM 31.7094 -105.9664 333° Northwest 320 368 10,100 -720 Descending Albuquerque Center
11:51AM 31.7556 -105.9972 330° Northwest 302 348 9,900 -540 Descending Albuquerque Center
11:51AM 31.7778 -106.0114 332° Northwest 276 318 9,600 -1,020 Descending Albuquerque Center
11:52AM 31.8022 -106.0483 308° West 232 267 8,900 -1,020 Descending Albuquerque Center
11:52AM 31.7994 -106.0711 262° West 189 217 8,600 -1,020 Descending Albuquerque Center
11:53AM 31.7947 -106.1097 262° West 193 222 7,900 -900 Descending Albuquerque Center
11:54AM 31.7903 -106.1653 265° West 174 200 7,000 -900 Descending Albuquerque Center
11:55AM 31.7942 -106.2289 274° West 163 188 6,100 -840 Descending Albuquerque Center
11:56AM 31.7961 -106.2753 273° West 148 170 5,300 -840 Descending Albuquerque Center